sensor_id;sensor_type;location;lat;lon;timestamp;P1;durP1;ratioP1;P2;durP2;ratioP2
9698;SDS011;10089;47.876;8.346;2023-07-24T00:02:03;13.65;;;6.15;;
9698;SDS011;10089;47.876;8.346;2023-07-24T00:04:29;9.52;;;6.20;;
9698;SDS011;10089;47.876;8.346;2023-07-24T00:06:56;10.05;;;6.85;;
9698;SDS011;10089;47.876;8.346;2023-07-24T00:09:22;9.90;;;6.40;;
9698;SDS011;10089;47.876;8.346;2023-07-24T00:11:48;8.55;;;6.35;;
9698;SDS011;10089;47.876;8.346;2023-07-24T00:14:14;10.73;;;6.95;;
9698;SDS011;10089;47.876;8.346;2023-07-24T00:16:40;10.00;;;6.30;;
9698;SDS011;10089;47.876;8.346;2023-07-24T00:19:06;11.80;;;6.93;;
9698;SDS011;10089;47.876;8.346;2023-07-24T00:21:32;14.52;;;6.20;;
9698;SDS011;10089;47.876;8.346;2023-07-24T00:23:57;10.55;;;6.63;;
9698;SDS011;10089;47.876;8.346;2023-07-24T00:26:23;10.32;;;6.82;;
9698;SDS011;10089;47.876;8.346;2023-07-24T00:28:48;11.73;;;6.63;;
9698;SDS011;10089;47.876;8.346;2023-07-24T00:31:14;10.38;;;6.25;;
9698;SDS011;10089;47.876;8.346;2023-07-24T00:33:40;10.40;;;6.90;;
9698;SDS011;10089;47.876;8.346;2023-07-24T00:36:05;8.93;;;6.50;;
9698;SDS011;10089;47.876;8.346;2023-07-24T00:38:31;9.85;;;6.18;;
9698;SDS011;10089;47.876;8.346;2023-07-24T00:40:56;8.95;;;6.07;;
9698;SDS011;10089;47.876;8.346;2023-07-24T00:43:22;12.45;;;6.30;;
9698;SDS011;10089;47.876;8.346;2023-07-24T00:45:48;20.83;;;8.75;;
9698;SDS011;10089;47.876;8.346;2023-07-24T00:48:14;14.32;;;7.20;;
9698;SDS011;10089;47.876;8.346;2023-07-24T00:50:40;10.45;;;6.43;;
9698;SDS011;10089;47.876;8.346;2023-07-24T00:53:08;10.35;;;6.50;;
9698;SDS011;10089;47.876;8.346;2023-07-24T00:55:36;11.05;;;7.55;;
9698;SDS011;10089;47.876;8.346;2023-07-24T00:58:02;8.90;;;6.30;;
9698;SDS011;10089;47.876;8.346;2023-07-24T01:00:29;12.75;;;6.97;;
9698;SDS011;10089;47.876;8.346;2023-07-24T01:02:55;10.23;;;6.32;;
9698;SDS011;10089;47.876;8.346;2023-07-24T01:05:21;9.20;;;6.35;;
9698;SDS011;10089;47.876;8.346;2023-07-24T01:07:49;11.35;;;7.10;;
9698;SDS011;10089;47.876;8.346;2023-07-24T01:10:15;7.57;;;5.47;;
9698;SDS011;10089;47.876;8.346;2023-07-24T01:15:29;10.40;;;6.35;;
9698;SDS011;10089;47.876;8.346;2023-07-24T01:18:01;11.48;;;6.50;;
9698;SDS011;10089;47.876;8.346;2023-07-24T01:20:32;11.73;;;6.60;;
9698;SDS011;10089;47.876;8.346;2023-07-24T01:26:20;10.75;;;6.32;;
9698;SDS011;10089;47.876;8.346;2023-07-24T01:28:49;9.52;;;6.20;;
9698;SDS011;10089;47.876;8.346;2023-07-24T01:31:14;10.15;;;6.55;;
9698;SDS011;10089;47.876;8.346;2023-07-24T01:33:41;12.68;;;6.85;;
9698;SDS011;10089;47.876;8.346;2023-07-24T01:36:10;10.50;;;7.07;;
9698;SDS011;10089;47.876;8.346;2023-07-24T01:38:38;14.15;;;6.43;;
9698;SDS011;10089;47.876;8.346;2023-07-24T01:41:04;10.05;;;6.43;;
9698;SDS011;10089;47.876;8.346;2023-07-24T01:43:31;11.57;;;7.30;;
9698;SDS011;10089;47.876;8.346;2023-07-24T01:45:57;16.42;;;7.57;;
9698;SDS011;10089;47.876;8.346;2023-07-24T01:48:23;16.15;;;7.15;;
9698;SDS011;10089;47.876;8.346;2023-07-24T01:50:49;11.43;;;6.88;;
9698;SDS011;10089;47.876;8.346;2023-07-24T01:53:15;10.30;;;7.43;;
9698;SDS011;10089;47.876;8.346;2023-07-24T01:55:41;13.27;;;7.78;;
9698;SDS011;10089;47.876;8.346;2023-07-24T02:03:11;9.95;;;6.60;;
9698;SDS011;10089;47.876;8.346;2023-07-24T02:05:37;13.10;;;7.22;;
9698;SDS011;10089;47.876;8.346;2023-07-24T02:08:02;9.75;;;6.70;;
9698;SDS011;10089;47.876;8.346;2023-07-24T02:10:28;10.80;;;6.72;;
9698;SDS011;10089;47.876;8.346;2023-07-24T02:12:54;10.60;;;7.10;;
9698;SDS011;10089;47.876;8.346;2023-07-24T02:15:22;10.20;;;6.75;;
9698;SDS011;10089;47.876;8.346;2023-07-24T02:17:51;9.35;;;6.82;;
9698;SDS011;10089;47.876;8.346;2023-07-24T02:20:17;10.95;;;6.53;;
9698;SDS011;10089;47.876;8.346;2023-07-24T02:22:43;11.30;;;6.80;;
9698;SDS011;10089;47.876;8.346;2023-07-24T02:25:08;11.10;;;7.03;;
9698;SDS011;10089;47.876;8.346;2023-07-24T02:27:34;11.15;;;7.38;;
9698;SDS011;10089;47.876;8.346;2023-07-24T02:30:03;11.05;;;7.00;;
9698;SDS011;10089;47.876;8.346;2023-07-24T02:32:32;14.73;;;6.97;;
9698;SDS011;10089;47.876;8.346;2023-07-24T02:34:58;11.20;;;6.63;;
9698;SDS011;10089;47.876;8.346;2023-07-24T02:37:26;12.68;;;7.20;;
9698;SDS011;10089;47.876;8.346;2023-07-24T02:39:52;10.50;;;6.72;;
9698;SDS011;10089;47.876;8.346;2023-07-24T02:42:18;10.43;;;6.68;;
9698;SDS011;10089;47.876;8.346;2023-07-24T02:44:44;10.18;;;6.55;;
9698;SDS011;10089;47.876;8.346;2023-07-24T02:47:09;11.05;;;6.10;;
9698;SDS011;10089;47.876;8.346;2023-07-24T02:49:41;8.82;;;5.97;;
9698;SDS011;10089;47.876;8.346;2023-07-24T02:52:06;11.73;;;6.72;;
9698;SDS011;10089;47.876;8.346;2023-07-24T02:54:35;11.38;;;7.22;;
9698;SDS011;10089;47.876;8.346;2023-07-24T02:57:03;10.45;;;6.82;;
9698;SDS011;10089;47.876;8.346;2023-07-24T02:59:29;12.57;;;7.25;;
9698;SDS011;10089;47.876;8.346;2023-07-24T03:02:00;16.33;;;7.35;;
9698;SDS011;10089;47.876;8.346;2023-07-24T03:04:31;9.95;;;6.15;;
9698;SDS011;10089;47.876;8.346;2023-07-24T03:06:57;9.82;;;6.53;;
9698;SDS011;10089;47.876;8.346;2023-07-24T03:09:23;10.63;;;6.60;;
9698;SDS011;10089;47.876;8.346;2023-07-24T03:11:49;11.05;;;6.72;;
9698;SDS011;10089;47.876;8.346;2023-07-24T03:14:15;8.38;;;6.32;;
9698;SDS011;10089;47.876;8.346;2023-07-24T03:16:49;11.52;;;6.43;;
9698;SDS011;10089;47.876;8.346;2023-07-24T03:26:40;9.77;;;6.60;;
9698;SDS011;10089;47.876;8.346;2023-07-24T03:29:19;13.60;;;6.90;;
9698;SDS011;10089;47.876;8.346;2023-07-24T03:31:45;10.00;;;6.15;;
9698;SDS011;10089;47.876;8.346;2023-07-24T03:34:35;8.13;;;6.18;;
9698;SDS011;10089;47.876;8.346;2023-07-24T03:37:30;10.45;;;6.60;;
9698;SDS011;10089;47.876;8.346;2023-07-24T03:40:33;10.15;;;6.32;;
9698;SDS011;10089;47.876;8.346;2023-07-24T03:42:59;12.35;;;6.47;;
9698;SDS011;10089;47.876;8.346;2023-07-24T03:45:24;11.88;;;6.55;;
9698;SDS011;10089;47.876;8.346;2023-07-24T03:47:51;13.18;;;7.00;;
9698;SDS011;10089;47.876;8.346;2023-07-24T03:50:16;11.20;;;6.13;;
9698;SDS011;10089;47.876;8.346;2023-07-24T03:52:42;11.88;;;5.90;;
9698;SDS011;10089;47.876;8.346;2023-07-24T03:55:08;8.35;;;5.95;;
9698;SDS011;10089;47.876;8.346;2023-07-24T03:57:34;10.05;;;6.50;;
9698;SDS011;10089;47.876;8.346;2023-07-24T03:59:59;15.63;;;6.57;;
9698;SDS011;10089;47.876;8.346;2023-07-24T04:02:25;13.73;;;5.78;;
9698;SDS011;10089;47.876;8.346;2023-07-24T04:04:51;12.95;;;6.25;;
9698;SDS011;10089;47.876;8.346;2023-07-24T04:07:16;10.30;;;5.97;;
9698;SDS011;10089;47.876;8.346;2023-07-24T04:09:43;13.10;;;6.60;;
9698;SDS011;10089;47.876;8.346;2023-07-24T04:12:09;15.00;;;6.32;;
9698;SDS011;10089;47.876;8.346;2023-07-24T04:14:34;12.48;;;5.90;;
9698;SDS011;10089;47.876;8.346;2023-07-24T04:17:00;12.48;;;5.88;;
9698;SDS011;10089;47.876;8.346;2023-07-24T04:19:26;8.70;;;5.90;;
9698;SDS011;10089;47.876;8.346;2023-07-24T04:21:51;8.80;;;5.85;;
9698;SDS011;10089;47.876;8.346;2023-07-24T04:24:17;10.40;;;6.22;;
9698;SDS011;10089;47.876;8.346;2023-07-24T04:26:42;9.82;;;6.53;;
9698;SDS011;10089;47.876;8.346;2023-07-24T04:29:08;11.65;;;6.57;;
9698;SDS011;10089;47.876;8.346;2023-07-24T04:31:33;12.32;;;6.00;;
9698;SDS011;10089;47.876;8.346;2023-07-24T04:33:59;15.57;;;6.15;;
9698;SDS011;10089;47.876;8.346;2023-07-24T04:36:25;11.93;;;6.18;;
9698;SDS011;10089;47.876;8.346;2023-07-24T04:38:50;8.43;;;5.75;;
9698;SDS011;10089;47.876;8.346;2023-07-24T04:41:16;9.82;;;6.40;;
9698;SDS011;10089;47.876;8.346;2023-07-24T04:43:41;12.98;;;6.13;;
9698;SDS011;10089;47.876;8.346;2023-07-24T04:48:42;9.98;;;5.82;;
9698;SDS011;10089;47.876;8.346;2023-07-24T05:03:22;11.07;;;5.53;;
9698;SDS011;10089;47.876;8.346;2023-07-24T05:07:19;12.05;;;5.95;;
9698;SDS011;10089;47.876;8.346;2023-07-24T05:14:38;10.43;;;5.60;;
9698;SDS011;10089;47.876;8.346;2023-07-24T05:18:11;11.18;;;6.03;;
9698;SDS011;10089;47.876;8.346;2023-07-24T05:21:29;12.88;;;7.45;;
9698;SDS011;10089;47.876;8.346;2023-07-24T05:24:24;8.25;;;5.85;;
9698;SDS011;10089;47.876;8.346;2023-07-24T05:26:53;8.00;;;5.85;;
9698;SDS011;10089;47.876;8.346;2023-07-24T05:29:19;11.65;;;6.45;;
9698;SDS011;10089;47.876;8.346;2023-07-24T05:31:45;9.43;;;6.30;;
9698;SDS011;10089;47.876;8.346;2023-07-24T05:34:10;12.02;;;5.78;;
9698;SDS011;10089;47.876;8.346;2023-07-24T05:36:40;7.45;;;5.55;;
9698;SDS011;10089;47.876;8.346;2023-07-24T05:39:31;6.93;;;5.35;;
9698;SDS011;10089;47.876;8.346;2023-07-24T05:41:56;10.82;;;5.63;;
9698;SDS011;10089;47.876;8.346;2023-07-24T05:44:22;7.32;;;5.13;;
9698;SDS011;10089;47.876;8.346;2023-07-24T05:46:48;7.47;;;4.97;;
9698;SDS011;10089;47.876;8.346;2023-07-24T05:49:14;10.75;;;7.35;;
9698;SDS011;10089;47.876;8.346;2023-07-24T05:51:39;9.75;;;5.72;;
9698;SDS011;10089;47.876;8.346;2023-07-24T05:54:05;7.50;;;5.07;;
9698;SDS011;10089;47.876;8.346;2023-07-24T05:56:32;7.93;;;4.72;;
9698;SDS011;10089;47.876;8.346;2023-07-24T05:58:57;8.82;;;5.00;;
9698;SDS011;10089;47.876;8.346;2023-07-24T06:01:23;8.40;;;5.60;;
9698;SDS011;10089;47.876;8.346;2023-07-24T06:03:48;8.27;;;5.00;;
9698;SDS011;10089;47.876;8.346;2023-07-24T06:06:14;8.70;;;4.88;;
9698;SDS011;10089;47.876;8.346;2023-07-24T06:08:39;11.77;;;5.60;;
9698;SDS011;10089;47.876;8.346;2023-07-24T06:11:05;9.77;;;5.85;;
9698;SDS011;10089;47.876;8.346;2023-07-24T06:13:31;7.63;;;5.53;;
9698;SDS011;10089;47.876;8.346;2023-07-24T06:15:56;10.48;;;5.35;;
9698;SDS011;10089;47.876;8.346;2023-07-24T06:18:22;6.20;;;4.65;;
9698;SDS011;10089;47.876;8.346;2023-07-24T06:20:51;7.72;;;4.85;;
9698;SDS011;10089;47.876;8.346;2023-07-24T06:23:17;8.98;;;4.95;;
9698;SDS011;10089;47.876;8.346;2023-07-24T06:25:43;10.07;;;4.68;;
9698;SDS011;10089;47.876;8.346;2023-07-24T06:28:09;7.35;;;4.63;;
9698;SDS011;10089;47.876;8.346;2023-07-24T06:30:34;7.43;;;4.32;;
9698;SDS011;10089;47.876;8.346;2023-07-24T06:33:00;6.43;;;4.93;;
9698;SDS011;10089;47.876;8.346;2023-07-24T06:35:26;6.05;;;4.35;;
9698;SDS011;10089;47.876;8.346;2023-07-24T06:37:52;6.13;;;4.40;;
9698;SDS011;10089;47.876;8.346;2023-07-24T06:40:19;8.30;;;3.75;;
9698;SDS011;10089;47.876;8.346;2023-07-24T06:42:47;8.57;;;4.60;;
9698;SDS011;10089;47.876;8.346;2023-07-24T06:45:15;7.25;;;4.53;;
9698;SDS011;10089;47.876;8.346;2023-07-24T06:47:43;7.45;;;4.25;;
9698;SDS011;10089;47.876;8.346;2023-07-24T06:50:10;8.32;;;4.60;;
9698;SDS011;10089;47.876;8.346;2023-07-24T06:52:36;7.45;;;3.83;;
9698;SDS011;10089;47.876;8.346;2023-07-24T06:55:02;9.18;;;4.50;;
9698;SDS011;10089;47.876;8.346;2023-07-24T06:57:29;6.55;;;4.75;;
9698;SDS011;10089;47.876;8.346;2023-07-24T06:59:54;7.18;;;3.95;;
9698;SDS011;10089;47.876;8.346;2023-07-24T07:02:21;5.45;;;3.80;;
9698;SDS011;10089;47.876;8.346;2023-07-24T07:04:46;5.50;;;4.30;;
9698;SDS011;10089;47.876;8.346;2023-07-24T07:07:13;6.00;;;4.35;;
9698;SDS011;10089;47.876;8.346;2023-07-24T07:09:39;8.00;;;3.78;;
9698;SDS011;10089;47.876;8.346;2023-07-24T07:12:05;5.43;;;3.70;;
9698;SDS011;10089;47.876;8.346;2023-07-24T07:14:33;6.63;;;3.67;;
9698;SDS011;10089;47.876;8.346;2023-07-24T07:16:58;7.35;;;4.72;;
9698;SDS011;10089;47.876;8.346;2023-07-24T07:19:24;6.35;;;4.07;;
9698;SDS011;10089;47.876;8.346;2023-07-24T07:21:49;5.65;;;3.97;;
9698;SDS011;10089;47.876;8.346;2023-07-24T07:24:16;10.10;;;4.03;;
9698;SDS011;10089;47.876;8.346;2023-07-24T07:26:42;5.20;;;3.75;;
9698;SDS011;10089;47.876;8.346;2023-07-24T07:29:12;5.03;;;3.67;;
9698;SDS011;10089;47.876;8.346;2023-07-24T07:31:42;8.55;;;4.05;;
9698;SDS011;10089;47.876;8.346;2023-07-24T07:34:08;6.38;;;3.33;;
9698;SDS011;10089;47.876;8.346;2023-07-24T07:36:34;4.63;;;3.63;;
9698;SDS011;10089;47.876;8.346;2023-07-24T07:39:00;5.47;;;4.03;;
9698;SDS011;10089;47.876;8.346;2023-07-24T07:41:27;5.68;;;3.63;;
9698;SDS011;10089;47.876;8.346;2023-07-24T07:43:53;5.57;;;4.18;;
9698;SDS011;10089;47.876;8.346;2023-07-24T07:46:19;3.95;;;2.97;;
9698;SDS011;10089;47.876;8.346;2023-07-24T07:48:45;5.47;;;3.65;;
9698;SDS011;10089;47.876;8.346;2023-07-24T07:51:14;8.45;;;4.13;;
9698;SDS011;10089;47.876;8.346;2023-07-24T07:53:40;6.55;;;3.92;;
9698;SDS011;10089;47.876;8.346;2023-07-24T07:56:05;5.22;;;3.35;;
9698;SDS011;10089;47.876;8.346;2023-07-24T07:58:31;4.68;;;3.80;;
9698;SDS011;10089;47.876;8.346;2023-07-24T08:00:57;5.05;;;3.70;;
9698;SDS011;10089;47.876;8.346;2023-07-24T08:03:23;5.60;;;3.30;;
9698;SDS011;10089;47.876;8.346;2023-07-24T08:05:48;4.97;;;3.58;;
9698;SDS011;10089;47.876;8.346;2023-07-24T08:08:14;5.50;;;3.78;;
9698;SDS011;10089;47.876;8.346;2023-07-24T08:10:39;6.68;;;3.75;;
9698;SDS011;10089;47.876;8.346;2023-07-24T08:13:05;7.72;;;4.03;;
9698;SDS011;10089;47.876;8.346;2023-07-24T08:15:36;4.85;;;3.75;;
9698;SDS011;10089;47.876;8.346;2023-07-24T08:18:05;5.80;;;3.83;;
9698;SDS011;10089;47.876;8.346;2023-07-24T08:20:31;6.20;;;4.00;;
9698;SDS011;10089;47.876;8.346;2023-07-24T08:23:00;6.78;;;4.65;;
9698;SDS011;10089;47.876;8.346;2023-07-24T08:25:25;6.00;;;4.30;;
9698;SDS011;10089;47.876;8.346;2023-07-24T08:27:51;5.53;;;3.78;;
9698;SDS011;10089;47.876;8.346;2023-07-24T08:30:17;5.35;;;3.97;;
9698;SDS011;10089;47.876;8.346;2023-07-24T08:32:43;6.95;;;4.20;;
9698;SDS011;10089;47.876;8.346;2023-07-24T08:35:08;5.35;;;3.70;;
9698;SDS011;10089;47.876;8.346;2023-07-24T08:37:34;6.32;;;4.10;;
9698;SDS011;10089;47.876;8.346;2023-07-24T08:40:00;5.30;;;3.47;;
9698;SDS011;10089;47.876;8.346;2023-07-24T08:42:26;6.90;;;3.95;;
9698;SDS011;10089;47.876;8.346;2023-07-24T08:44:53;6.18;;;4.10;;
9698;SDS011;10089;47.876;8.346;2023-07-24T08:47:20;5.57;;;3.88;;
9698;SDS011;10089;47.876;8.346;2023-07-24T08:49:47;5.75;;;3.83;;
9698;SDS011;10089;47.876;8.346;2023-07-24T08:52:15;6.30;;;4.20;;
9698;SDS011;10089;47.876;8.346;2023-07-24T08:54:40;6.38;;;4.15;;
9698;SDS011;10089;47.876;8.346;2023-07-24T08:57:07;6.50;;;4.25;;
9698;SDS011;10089;47.876;8.346;2023-07-24T08:59:33;5.65;;;3.63;;
9698;SDS011;10089;47.876;8.346;2023-07-24T09:01:59;6.65;;;4.18;;
9698;SDS011;10089;47.876;8.346;2023-07-24T09:04:25;6.82;;;4.03;;
9698;SDS011;10089;47.876;8.346;2023-07-24T09:06:50;9.95;;;4.80;;
9698;SDS011;10089;47.876;8.346;2023-07-24T09:09:16;5.82;;;3.85;;
9698;SDS011;10089;47.876;8.346;2023-07-24T09:11:46;7.22;;;4.35;;
9698;SDS011;10089;47.876;8.346;2023-07-24T09:14:22;8.77;;;4.30;;
9698;SDS011;10089;47.876;8.346;2023-07-24T09:16:49;5.35;;;3.97;;
9698;SDS011;10089;47.876;8.346;2023-07-24T09:19:21;7.05;;;4.50;;
9698;SDS011;10089;47.876;8.346;2023-07-24T09:21:46;6.57;;;4.20;;
9698;SDS011;10089;47.876;8.346;2023-07-24T09:24:14;7.20;;;4.65;;
9698;SDS011;10089;47.876;8.346;2023-07-24T09:26:47;8.18;;;5.13;;
9698;SDS011;10089;47.876;8.346;2023-07-24T09:29:13;8.10;;;4.75;;
9698;SDS011;10089;47.876;8.346;2023-07-24T09:31:39;9.30;;;5.35;;
9698;SDS011;10089;47.876;8.346;2023-07-24T09:34:13;9.25;;;5.35;;
9698;SDS011;10089;47.876;8.346;2023-07-24T09:36:42;9.63;;;5.40;;
9698;SDS011;10089;47.876;8.346;2023-07-24T09:39:09;9.40;;;5.47;;
9698;SDS011;10089;47.876;8.346;2023-07-24T09:41:36;9.15;;;5.53;;
9698;SDS011;10089;47.876;8.346;2023-07-24T09:44:04;7.93;;;4.97;;
9698;SDS011;10089;47.876;8.346;2023-07-24T09:46:30;10.93;;;5.60;;
9698;SDS011;10089;47.876;8.346;2023-07-24T09:48:57;15.77;;;6.20;;
9698;SDS011;10089;47.876;8.346;2023-07-24T09:51:29;10.98;;;3.58;;
9698;SDS011;10089;47.876;8.346;2023-07-24T09:54:15;4.35;;;2.38;;
9698;SDS011;10089;47.876;8.346;2023-07-24T09:56:47;5.63;;;2.63;;
9698;SDS011;10089;47.876;8.346;2023-07-24T09:59:20;4.85;;;2.70;;
9698;SDS011;10089;47.876;8.346;2023-07-24T10:01:50;3.40;;;2.63;;
9698;SDS011;10089;47.876;8.346;2023-07-24T10:04:16;4.40;;;2.80;;
9698;SDS011;10089;47.876;8.346;2023-07-24T10:06:43;2.78;;;2.40;;
9698;SDS011;10089;47.876;8.346;2023-07-24T10:09:09;6.35;;;3.00;;
9698;SDS011;10089;47.876;8.346;2023-07-24T10:11:38;5.85;;;2.65;;
9698;SDS011;10089;47.876;8.346;2023-07-24T10:14:22;5.88;;;2.80;;
9698;SDS011;10089;47.876;8.346;2023-07-24T10:18:07;4.22;;;2.97;;
9698;SDS011;10089;47.876;8.346;2023-07-24T10:21:04;6.22;;;2.90;;
9698;SDS011;10089;47.876;8.346;2023-07-24T10:23:33;3.67;;;2.67;;
9698;SDS011;10089;47.876;8.346;2023-07-24T10:26:06;3.83;;;2.33;;
9698;SDS011;10089;47.876;8.346;2023-07-24T10:28:37;3.83;;;1.90;;
9698;SDS011;10089;47.876;8.346;2023-07-24T10:31:23;2.00;;;1.67;;
9698;SDS011;10089;47.876;8.346;2023-07-24T10:34:24;4.30;;;2.22;;
9698;SDS011;10089;47.876;8.346;2023-07-24T10:37:02;4.20;;;2.38;;
9698;SDS011;10089;47.876;8.346;2023-07-24T10:39:36;3.55;;;1.90;;
9698;SDS011;10089;47.876;8.346;2023-07-24T10:42:07;4.70;;;2.17;;
9698;SDS011;10089;47.876;8.346;2023-07-24T10:44:34;3.00;;;2.03;;
9698;SDS011;10089;47.876;8.346;2023-07-24T10:47:00;4.45;;;1.90;;
9698;SDS011;10089;47.876;8.346;2023-07-24T10:49:26;3.15;;;1.67;;
9698;SDS011;10089;47.876;8.346;2023-07-24T10:51:55;5.43;;;2.42;;
9698;SDS011;10089;47.876;8.346;2023-07-24T10:54:22;2.88;;;2.00;;
9698;SDS011;10089;47.876;8.346;2023-07-24T10:56:47;2.85;;;1.70;;
9698;SDS011;10089;47.876;8.346;2023-07-24T10:59:13;2.95;;;1.90;;
9698;SDS011;10089;47.876;8.346;2023-07-24T11:01:39;2.20;;;1.67;;
9698;SDS011;10089;47.876;8.346;2023-07-24T11:04:06;2.88;;;1.80;;
9698;SDS011;10089;47.876;8.346;2023-07-24T11:06:32;2.42;;;2.00;;
9698;SDS011;10089;47.876;8.346;2023-07-24T11:08:58;3.42;;;2.05;;
9698;SDS011;10089;47.876;8.346;2023-07-24T11:11:35;3.50;;;2.22;;
9698;SDS011;10089;47.876;8.346;2023-07-24T11:14:01;4.97;;;2.20;;
9698;SDS011;10089;47.876;8.346;2023-07-24T11:16:27;3.63;;;2.35;;
9698;SDS011;10089;47.876;8.346;2023-07-24T11:18:55;3.25;;;2.08;;
9698;SDS011;10089;47.876;8.346;2023-07-24T11:21:22;3.67;;;2.42;;
9698;SDS011;10089;47.876;8.346;2023-07-24T11:23:49;2.88;;;2.33;;
9698;SDS011;10089;47.876;8.346;2023-07-24T11:26:18;5.55;;;2.40;;
9698;SDS011;10089;47.876;8.346;2023-07-24T11:28:46;4.05;;;2.65;;
9698;SDS011;10089;47.876;8.346;2023-07-24T11:31:11;2.78;;;2.10;;
9698;SDS011;10089;47.876;8.346;2023-07-24T11:33:37;3.15;;;2.50;;
9698;SDS011;10089;47.876;8.346;2023-07-24T11:36:04;2.72;;;2.53;;
9698;SDS011;10089;47.876;8.346;2023-07-24T11:38:30;4.68;;;2.55;;
9698;SDS011;10089;47.876;8.346;2023-07-24T11:40:55;3.92;;;2.30;;
9698;SDS011;10089;47.876;8.346;2023-07-24T11:43:22;3.33;;;2.67;;
9698;SDS011;10089;47.876;8.346;2023-07-24T11:45:49;9.13;;;6.45;;
9698;SDS011;10089;47.876;8.346;2023-07-24T11:48:22;6.00;;;3.78;;
9698;SDS011;10089;47.876;8.346;2023-07-24T11:50:52;3.72;;;2.70;;
9698;SDS011;10089;47.876;8.346;2023-07-24T11:53:29;5.40;;;2.97;;
9698;SDS011;10089;47.876;8.346;2023-07-24T11:55:56;3.65;;;2.50;;
9698;SDS011;10089;47.876;8.346;2023-07-24T11:58:27;3.15;;;2.50;;
9698;SDS011;10089;47.876;8.346;2023-07-24T12:00:54;2.70;;;2.00;;
9698;SDS011;10089;47.876;8.346;2023-07-24T12:03:27;3.92;;;2.30;;
9698;SDS011;10089;47.876;8.346;2023-07-24T12:05:53;5.70;;;2.25;;
9698;SDS011;10089;47.876;8.346;2023-07-24T12:08:40;3.53;;;2.47;;
9698;SDS011;10089;47.876;8.346;2023-07-24T12:11:15;3.22;;;2.35;;
9698;SDS011;10089;47.876;8.346;2023-07-24T12:13:42;3.28;;;2.30;;
9698;SDS011;10089;47.876;8.346;2023-07-24T12:16:07;6.15;;;2.78;;
9698;SDS011;10089;47.876;8.346;2023-07-24T12:18:33;3.47;;;2.78;;
9698;SDS011;10089;47.876;8.346;2023-07-24T12:20:58;3.97;;;2.88;;
9698;SDS011;10089;47.876;8.346;2023-07-24T12:23:24;3.47;;;2.47;;
9698;SDS011;10089;47.876;8.346;2023-07-24T12:25:50;4.38;;;2.67;;
9698;SDS011;10089;47.876;8.346;2023-07-24T12:28:15;3.55;;;2.63;;
9698;SDS011;10089;47.876;8.346;2023-07-24T12:30:41;3.67;;;2.50;;
9698;SDS011;10089;47.876;8.346;2023-07-24T12:33:07;4.20;;;2.80;;
9698;SDS011;10089;47.876;8.346;2023-07-24T12:35:33;2.80;;;2.15;;
9698;SDS011;10089;47.876;8.346;2023-07-24T12:37:58;2.22;;;1.77;;
9698;SDS011;10089;47.876;8.346;2023-07-24T12:40:24;3.10;;;2.10;;
9698;SDS011;10089;47.876;8.346;2023-07-24T12:42:49;4.38;;;2.05;;
9698;SDS011;10089;47.876;8.346;2023-07-24T12:45:15;2.30;;;1.60;;
9698;SDS011;10089;47.876;8.346;2023-07-24T12:47:41;5.70;;;1.90;;
9698;SDS011;10089;47.876;8.346;2023-07-24T12:50:06;2.35;;;1.75;;
9698;SDS011;10089;47.876;8.346;2023-07-24T12:52:32;2.08;;;1.70;;
9698;SDS011;10089;47.876;8.346;2023-07-24T12:54:57;2.05;;;1.85;;
9698;SDS011;10089;47.876;8.346;2023-07-24T12:57:23;3.22;;;2.10;;
9698;SDS011;10089;47.876;8.346;2023-07-24T12:59:49;2.85;;;2.17;;
9698;SDS011;10089;47.876;8.346;2023-07-24T13:02:14;3.05;;;2.20;;
9698;SDS011;10089;47.876;8.346;2023-07-24T13:04:40;2.67;;;1.90;;
9698;SDS011;10089;47.876;8.346;2023-07-24T13:07:05;2.78;;;2.30;;
9698;SDS011;10089;47.876;8.346;2023-07-24T13:09:31;2.53;;;2.28;;
9698;SDS011;10089;47.876;8.346;2023-07-24T13:11:56;3.78;;;2.08;;
9698;SDS011;10089;47.876;8.346;2023-07-24T13:14:22;4.22;;;2.17;;
9698;SDS011;10089;47.876;8.346;2023-07-24T13:16:48;3.03;;;2.25;;
9698;SDS011;10089;47.876;8.346;2023-07-24T13:19:15;3.25;;;2.35;;
9698;SDS011;10089;47.876;8.346;2023-07-24T13:21:40;3.35;;;2.35;;
9698;SDS011;10089;47.876;8.346;2023-07-24T13:24:07;2.22;;;1.80;;
9698;SDS011;10089;47.876;8.346;2023-07-24T13:26:33;2.50;;;2.25;;
9698;SDS011;10089;47.876;8.346;2023-07-24T13:28:59;2.80;;;2.00;;
9698;SDS011;10089;47.876;8.346;2023-07-24T13:31:25;4.22;;;2.28;;
9698;SDS011;10089;47.876;8.346;2023-07-24T13:33:50;3.35;;;2.30;;
9698;SDS011;10089;47.876;8.346;2023-07-24T13:36:16;3.10;;;2.20;;
9698;SDS011;10089;47.876;8.346;2023-07-24T13:38:42;3.30;;;2.10;;
9698;SDS011;10089;47.876;8.346;2023-07-24T13:41:07;2.97;;;2.50;;
9698;SDS011;10089;47.876;8.346;2023-07-24T13:43:33;2.25;;;2.05;;
9698;SDS011;10089;47.876;8.346;2023-07-24T13:45:59;2.88;;;2.15;;
9698;SDS011;10089;47.876;8.346;2023-07-24T13:48:27;2.58;;;2.08;;
9698;SDS011;10089;47.876;8.346;2023-07-24T13:50:52;2.97;;;2.45;;
9698;SDS011;10089;47.876;8.346;2023-07-24T13:53:18;2.20;;;2.00;;
9698;SDS011;10089;47.876;8.346;2023-07-24T13:55:43;4.22;;;2.15;;
9698;SDS011;10089;47.876;8.346;2023-07-24T13:58:09;3.05;;;2.45;;
9698;SDS011;10089;47.876;8.346;2023-07-24T14:00:35;3.70;;;2.80;;
9698;SDS011;10089;47.876;8.346;2023-07-24T14:03:00;4.55;;;2.85;;
9698;SDS011;10089;47.876;8.346;2023-07-24T14:05:26;5.15;;;2.35;;
9698;SDS011;10089;47.876;8.346;2023-07-24T14:07:52;3.70;;;2.72;;
9698;SDS011;10089;47.876;8.346;2023-07-24T14:10:17;4.10;;;2.55;;
9698;SDS011;10089;47.876;8.346;2023-07-24T14:12:43;4.13;;;2.90;;
9698;SDS011;10089;47.876;8.346;2023-07-24T14:15:08;6.97;;;2.88;;
9698;SDS011;10089;47.876;8.346;2023-07-24T14:17:34;8.25;;;5.75;;
9698;SDS011;10089;47.876;8.346;2023-07-24T14:20:00;8.93;;;6.05;;
9698;SDS011;10089;47.876;8.346;2023-07-24T14:22:27;4.15;;;2.80;;
9698;SDS011;10089;47.876;8.346;2023-07-24T14:24:52;4.32;;;2.88;;
9698;SDS011;10089;47.876;8.346;2023-07-24T14:27:18;4.20;;;2.83;;
9698;SDS011;10089;47.876;8.346;2023-07-24T14:29:44;5.57;;;2.80;;
9698;SDS011;10089;47.876;8.346;2023-07-24T14:32:09;5.55;;;3.10;;
9698;SDS011;10089;47.876;8.346;2023-07-24T14:34:35;4.65;;;3.30;;
9698;SDS011;10089;47.876;8.346;2023-07-24T14:37:01;3.70;;;2.45;;
9698;SDS011;10089;47.876;8.346;2023-07-24T14:39:26;4.63;;;2.55;;
9698;SDS011;10089;47.876;8.346;2023-07-24T14:41:52;4.18;;;2.95;;
9698;SDS011;10089;47.876;8.346;2023-07-24T14:44:17;3.80;;;2.75;;
9698;SDS011;10089;47.876;8.346;2023-07-24T14:46:43;3.88;;;2.67;;
9698;SDS011;10089;47.876;8.346;2023-07-24T14:49:08;5.32;;;3.05;;
9698;SDS011;10089;47.876;8.346;2023-07-24T14:51:34;4.85;;;3.00;;
9698;SDS011;10089;47.876;8.346;2023-07-24T14:54:00;8.20;;;2.80;;
9698;SDS011;10089;47.876;8.346;2023-07-24T14:56:25;4.88;;;3.08;;
9698;SDS011;10089;47.876;8.346;2023-07-24T14:58:51;3.60;;;3.15;;
9698;SDS011;10089;47.876;8.346;2023-07-24T15:01:16;4.28;;;3.08;;
9698;SDS011;10089;47.876;8.346;2023-07-24T15:03:43;3.92;;;2.92;;
9698;SDS011;10089;47.876;8.346;2023-07-24T15:06:08;4.85;;;2.70;;
9698;SDS011;10089;47.876;8.346;2023-07-24T15:08:34;5.60;;;2.58;;
9698;SDS011;10089;47.876;8.346;2023-07-24T15:11:00;4.40;;;3.00;;
9698;SDS011;10089;47.876;8.346;2023-07-24T15:13:26;5.47;;;3.30;;
9698;SDS011;10089;47.876;8.346;2023-07-24T15:15:51;4.72;;;3.15;;
9698;SDS011;10089;47.876;8.346;2023-07-24T15:18:17;4.30;;;3.25;;
9698;SDS011;10089;47.876;8.346;2023-07-24T15:20:43;3.78;;;3.10;;
9698;SDS011;10089;47.876;8.346;2023-07-24T15:23:09;5.35;;;2.55;;
9698;SDS011;10089;47.876;8.346;2023-07-24T15:25:35;4.13;;;3.35;;
9698;SDS011;10089;47.876;8.346;2023-07-24T15:28:02;4.20;;;2.90;;
9698;SDS011;10089;47.876;8.346;2023-07-24T15:30:27;6.22;;;3.63;;
9698;SDS011;10089;47.876;8.346;2023-07-24T15:32:53;3.97;;;3.33;;
9698;SDS011;10089;47.876;8.346;2023-07-24T15:35:18;4.35;;;3.25;;
9698;SDS011;10089;47.876;8.346;2023-07-24T15:37:44;5.43;;;3.42;;
9698;SDS011;10089;47.876;8.346;2023-07-24T15:40:10;7.28;;;3.58;;
9698;SDS011;10089;47.876;8.346;2023-07-24T15:42:36;4.68;;;3.67;;